Latest Weather Observations for Derby

IDW60801

Issued at 3:32 pm WST Thursday 5 March 2015 (issued every 30 minutes, with the page automatically refreshed every 10 minutes)

About weather observations | Map of weather stations | Latest weather observations for WA | Other Formats
Station Details ID: 003032 Name: DERBY AERO Lat: -17.37 Lon: 123.66 Height: 6.2 m
Data from the previous 72 hours. | See also: Recent months at Derby
Date/Time
WST
Temp
°C
App
Temp
°C
Dew
Point
Rel
Hum
%
Delta-T
°C
Wind Press
QNH
hPa
Press
MSL
hPa
Rain
since 9 am
mm
Dir
 
Spd
km/h
Gust
km/h
Spd
kts
Gust
kts
05/03:30pm 34.5 38.6 26.4 62 5.8 NW 17 24 9 13 1006.0 1006.0 0.0
05/03:00pm 34.4 38.3 25.5 60 6.4 NW 15 22 8 12 1006.1 1006.1 0.0
05/02:30pm 34.2 38.0 25.9 62 5.9 NW 17 20 9 11 1006.3 1006.3 0.0
05/02:00pm 34.3 38.9 26.0 62 6.0 WNW 13 20 7 11 1006.6 1006.6 0.0
05/01:30pm 35.4 40.9 27.3 63 5.9 NNW 13 20 7 11 1006.9 1006.9 0.0
05/01:00pm 35.0 39.1 24.0 53 7.7 N 9 19 5 10 1007.4 1007.4 0.0
05/12:30pm 34.0 37.4 23.4 54 7.4 N 11 15 6 8 1007.9 1007.9 0.0
05/12:00pm 34.1 37.7 23.8 55 7.2 NNE 11 15 6 8 1008.5 1008.5 0.0
05/11:30am 34.3 39.1 25.7 61 6.1 NNE 11 17 6 9 1008.8 1008.8 0.0
05/11:00am 33.1 38.0 24.6 61 6.0 ENE 7 22 4 12 1009.4 1009.4 0.0
05/10:30am 32.6 37.6 25.4 66 5.1 ENE 9 15 5 8 1010.0 1010.0 0.0
05/10:00am 32.2 37.5 25.8 69 4.6 E 9 15 5 8 1010.4 1010.4 0.0
05/09:30am 31.7 37.8 26.5 74 3.7 SE 7 11 4 6 1010.1 1010.1 0.0
05/09:00am 30.8 36.4 25.4 73 3.8 ESE 6 11 3 6 1009.9 1009.9 0.4
05/08:30am 30.3 35.6 25.8 77 3.2 E 9 13 5 7 1009.7 1009.7 0.2
05/08:00am 29.8 34.6 26.2 81 2.6 E 13 15 7 8 1009.8 1009.8 0.2
05/07:30am 28.8 34.7 26.2 86 1.9 E 7 9 4 5 1009.4 1009.4 0.2
05/07:00am 27.6 33.0 26.0 91 1.1 ENE 9 13 5 7 1009.1 1009.1 0.2
05/06:30am 26.7 32.1 26.0 96 0.5 ESE 9 13 5 7 1009.0 1009.0 0.2
05/06:00am 26.0 31.1 25.5 97 0.4 E 9 11 5 6 1009.0 1009.0 0.2
05/05:30am 26.0 31.4 25.5 97 0.4 E 7 11 4 6 1008.8 1008.8 0.2
05/05:00am 26.1 31.5 25.4 96 0.5 ENE 7 9 4 5 1008.3 1008.3 0.2
05/04:30am 26.2 31.3 25.5 96 0.5 ENE 9 11 5 6 1007.7 1007.7 0.2
05/04:00am 25.9 31.0 25.0 95 0.6 E 7 9 4 5 1007.6 1007.6 0.2
05/03:30am 26.1 31.5 25.2 95 0.6 E 6 7 3 4 1007.2 1007.2 0.2
05/03:00am 26.2 31.7 25.3 95 0.6 ENE 6 7 3 4 1007.3 1007.3 0.2
05/02:30am 26.4 32.0 25.4 94 0.7 ENE 6 7 3 4 1007.5 1007.5 0.2
05/02:00am 26.2 31.6 25.2 94 0.7 E 6 7 3 4 1008.0 1008.0 0.2
05/01:30am 26.1 31.4 24.9 93 0.8 E 6 9 3 5 1008.1 1008.1 0.2
05/01:00am 26.5 31.7 25.1 92 1.0 ENE 7 9 4 5 1008.1 1008.1 0.2
05/12:30am 26.6 31.9 25.0 91 1.1 E 6 7 3 4 1008.4 1008.4 0.2
05/12:00am 26.9 32.8 25.3 91 1.1 ENE 4 7 2 4 1008.7 1008.7 0.2
 
Date/Time
WST
Temp
°C
App
Temp
°C
Dew
Point
Rel
Hum
%
Delta-T
°C
Wind Press
QNH
hPa
Press
MSL
hPa
Rain
since 9 am
mm
Dir
 
Spd
km/h
Gust
km/h
Spd
kts
Gust
kts
04/11:30pm 26.8 32.1 25.0 90 1.3 E 6 7 3 4 1008.9 1008.9 0.2
04/11:00pm 27.2 33.7 25.0 88 1.5 CALM 0 0 0 0 1009.3 1009.3 0.2
04/10:30pm 27.2 32.5 25.0 88 1.5 ENE 6 7 3 4 1009.6 1009.6 0.2
04/10:00pm 27.1 32.9 25.1 89 1.4 NNE 4 7 2 4 1009.6 1009.6 0.2
04/09:30pm 26.9 32.3 25.1 90 1.3 NE 6 7 3 4 1009.5 1009.5 0.2
04/09:00pm 27.2 33.7 25.0 88 1.5 CALM 0 0 0 0 1008.9 1008.9 0.2
04/08:30pm 27.2 32.9 25.0 88 1.5 NNE 4 7 2 4 1008.9 1008.9 0.2
04/08:00pm 27.3 33.7 24.9 87 1.7 CALM 0 0 0 0 1008.4 1008.4 0.2
04/07:30pm 27.3 32.2 24.7 86 1.8 N 7 9 4 5 1008.2 1008.2 0.2
04/07:00pm 27.5 32.3 24.5 84 2.1 NNE 7 9 4 5 1007.9 1007.9 0.2
04/06:30pm 27.6 32.6 24.8 85 2.0 NNE 7 9 4 5 1007.1 1007.1 0.2
04/06:00pm 27.9 33.0 24.9 84 2.1 N 7 9 4 5 1007.1 1007.1 0.2
04/05:30pm 27.9 32.8 24.3 81 2.5 NNE 6 9 3 5 1006.4 1006.4 0.2
04/05:00pm 27.9 32.8 24.3 81 2.5 N 6 11 3 6 1006.4 1006.4 0.2
04/04:30pm 28.0 31.2 24.4 81 2.5 N 15 20 8 11 1006.4 1006.4 0.2
04/04:00pm 28.7 32.9 25.9 85 2.0 N 15 19 8 10 1006.5 1006.5 0.2
04/03:30pm 29.2 32.2 25.6 81 2.5 NNW 20 26 11 14 1006.4 1006.4 0.2
04/03:00pm 30.2 33.4 25.0 73 3.7 NNW 17 22 9 12 1005.9 1005.9 0.2
04/02:30pm 32.0 36.2 24.8 65 5.1 NNW 11 17 6 9 1005.5 1005.5 0.2
04/02:00pm 31.8 36.4 25.4 69 4.5 NW 11 15 6 8 1005.6 1005.6 0.2
04/01:30pm 30.0 33.5 25.5 77 3.2 NNW 17 26 9 14 1006.4 1006.4 0.0
04/01:00pm 31.5 34.8 25.1 69 4.5 NW 17 26 9 14 1006.5 1006.5 0.0
04/12:30pm 32.2 36.9 25.5 67 4.8 WNW 11 19 6 10 1006.9 1006.9 0.0
04/12:00pm 31.9 36.3 25.7 69 4.4 W 13 20 7 11 1007.5 1007.5 0.0
04/11:30am 32.2 37.6 25.5 67 4.8 NW 7 13 4 7 1007.8 1007.8 0.0
04/11:00am 32.1 37.0 25.2 67 4.9 WNW 9 13 5 7 1008.0 1008.0 0.0
04/10:30am 31.4 36.7 25.3 70 4.3 S 7 13 4 7 1007.9 1007.9 0.0
04/10:00am 29.9 34.6 25.6 78 3.0 SW 11 17 6 9 1008.6 1008.6 0.0
04/09:30am 29.5 34.7 25.7 80 2.7 WSW 9 13 5 7 1008.6 1008.6 0.0
04/09:00am 28.3 33.4 25.5 85 2.0 W 9 13 5 7 1008.6 1008.6 1.4
04/08:30am 28.4 33.4 24.8 81 2.5 SW 7 13 4 7 1008.5 1008.5 1.4
04/08:00am 28.3 33.0 25.5 85 2.0 S 11 15 6 8 1008.2 1008.2 1.4
04/07:30am 27.3 32.2 25.3 89 1.4 WSW 9 11 5 6 1008.0 1008.0 1.4
04/07:00am 26.7 32.0 25.3 92 1.0 ESE 7 9 4 5 1007.5 1007.5 1.4
04/06:30am 26.0 32.5 25.0 94 0.7 CALM 0 6 0 3 1007.3 1007.3 1.4
04/06:00am 25.6 30.5 24.7 95 0.6 S 7 11 4 6 1007.0 1007.0 1.4
04/05:30am 25.4 30.2 24.5 95 0.6 ESE 7 9 4 5 1006.6 1006.6 1.4
04/05:00am 25.4 30.2 24.5 95 0.6 ESE 7 9 4 5 1006.5 1006.5 1.4
04/04:30am 25.5 31.0 24.6 95 0.6 SE 4 9 2 5 1006.2 1006.2 1.4
04/04:00am 25.6 31.7 24.4 93 0.8 CALM 0 0 0 0 1005.7 1005.7 1.4
04/03:30am 25.9 32.0 24.5 92 1.0 CALM 0 0 0 0 1005.4 1005.4 1.4
04/03:00am 25.9 32.0 24.5 92 1.0 CALM 0 6 0 3 1005.3 1005.3 1.4
04/02:30am 25.8 30.6 24.4 92 1.0 NE 7 11 4 6 1004.8 1004.8 1.4
04/02:00am 25.9 30.6 24.3 91 1.1 NE 7 11 4 6 1004.9 1004.9 1.4
04/01:30am 26.0 30.8 24.4 91 1.1 NNE 7 9 4 5 1005.2 1005.2 1.4
04/01:00am 25.9 30.3 24.5 92 1.0 NNE 9 11 5 6 1005.5 1005.5 1.4
04/12:30am 25.9 30.5 24.7 93 0.8 NNE 9 11 5 6 1005.8 1005.8 1.4
04/12:00am 26.0 31.5 24.6 92 1.0 N 4 7 2 4 1006.1 1006.1 1.4
 
Date/Time
WST
Temp
°C
App
Temp
°C
Dew
Point
Rel
Hum
%
Delta-T
°C
Wind Press
QNH
hPa
Press
MSL
hPa
Rain
since 9 am
mm
Dir
 
Spd
km/h
Gust
km/h
Spd
kts
Gust
kts
03/11:30pm 26.3 32.3 24.9 92 1.0 N 2 6 1 3 1006.5 1006.5 1.4
03/11:00pm 26.3 32.6 24.7 91 1.1 CALM 0 4 0 2 1006.9 1006.9 1.4
03/10:30pm 26.2 31.3 24.6 91 1.1 SSW 6 6 3 3 1006.8 1006.8 1.4
03/10:00pm 26.2 31.0 24.4 90 1.2 WSW 7 9 4 5 1007.1 1007.1 1.4
03/09:30pm 26.3 30.6 24.3 89 1.4 SW 9 11 5 6 1006.9 1006.9 1.4
03/09:00pm 26.6 30.6 24.4 88 1.5 SSW 11 15 6 8 1007.1 1007.1 1.4
03/08:30pm 26.9 31.3 24.5 87 1.7 SW 9 13 5 7 1006.8 1006.8 1.4
03/08:00pm 26.8 30.5 24.5 87 1.6 WNW 13 17 7 9 1006.5 1006.5 1.4
03/07:30pm 27.2 31.1 24.8 87 1.7 W 13 17 7 9 1006.4 1006.4 1.4
03/07:00pm 27.5 31.2 25.1 87 1.7 WSW 15 19 8 10 1006.5 1006.5 1.4
03/06:30pm 27.8 31.9 24.6 83 2.2 W 11 11 6 6 1006.1 1006.1 1.4
03/06:00pm 27.8 32.2 24.4 82 2.4 WNW 9 13 5 7 1006.1 1006.1 1.4
03/05:30pm 28.0 31.9 24.2 80 2.6 WNW 11 15 6 8 1005.6 1005.6 1.4
03/05:00pm 28.0 30.8 23.6 77 3.0 NW 15 19 8 10 1005.6 1005.6 1.4
03/04:30pm 27.9 31.2 23.9 79 2.8 NW 13 19 7 10 1005.6 1005.6 1.4
03/04:00pm 28.4 31.6 24.4 79 2.8 NW 15 19 8 10 1005.3 1005.3 1.4
03/03:30pm 28.2 31.6 24.0 78 2.9 N 13 17 7 9 1005.3 1005.3 1.4
03/03:00pm 27.9 30.8 24.5 82 2.4 N 17 20 9 11 1005.5 1005.5 1.4
03/02:30pm 27.4 30.1 24.8 86 1.8 N 19 22 10 12 1005.9 1005.9 1.4
03/02:00pm 27.9 32.0 24.5 82 2.4 NNE 11 13 6 7 1006.0 1006.0 1.4
03/01:30pm 28.1 32.4 23.7 77 3.0 SSE 7 11 4 6 1005.7 1005.7 1.4
03/01:00pm 27.2 31.9 24.3 84 2.0 S 7 11 4 6 1005.7 1005.7 1.4
03/12:30pm 25.5 28.7 23.7 90 1.2 N 13 17 7 9 1006.5 1006.5 1.4
03/12:03pm 26.2 26.7 23.9 87 1.6 NE 28 52 15 28 1008.4 1008.4 0.4
03/12:00pm 27.6 29.8 24.8 85 2.0 NE 22 46 12 25 1008.3 1008.3 0.0
03/11:30am 29.8 32.0 24.2 72 3.9 NE 20 30 11 16 1008.3 1008.3 0.0
03/11:00am 31.0 33.8 23.6 64 5.1 E 15 22 8 12 1008.1 1008.1 0.0
03/10:30am 31.2 33.6 23.6 64 5.3 ESE 17 22 9 12 1008.0 1008.0 0.0
03/10:00am 31.2 34.4 24.3 66 4.8 SE 15 20 8 11 1007.9 1007.9 0.0
03/09:30am 31.2 34.3 24.1 66 4.9 SE 15 19 8 10 1008.0 1008.0 0.0
03/09:00am 30.8 33.8 24.7 70 4.3 SE 17 20 9 11 1008.1 1008.1 0.0
03/08:30am 30.6 33.5 24.5 70 4.3 SSE 17 22 9 12 1007.7 1007.7 0.0
03/08:00am 29.4 32.2 24.9 77 3.2 SSE 19 22 10 12 1007.7 1007.7 0.0
03/07:30am 28.7 32.1 24.7 79 2.8 S 15 20 8 11 1007.4 1007.4 0.0
03/07:00am 27.8 32.3 25.2 86 1.8 SSW 11 13 6 7 1007.4 1007.4 0.0
03/06:30am 27.1 31.7 25.3 90 1.3 SSW 11 13 6 7 1006.9 1006.9 0.0
03/06:00am 26.7 31.6 24.7 89 1.4 SW 7 9 4 5 1007.0 1007.0 0.0
03/05:30am 26.8 31.4 24.8 89 1.4 SSW 9 11 5 6 1006.6 1006.6 0.0
03/05:00am 26.9 31.1 24.7 88 1.5 S 11 15 6 8 1006.1 1006.1 0.0
03/04:30am 27.0 30.0 24.6 87 1.7 SSW 17 20 9 11 1005.8 1005.8 0.0
03/04:00am 27.1 30.5 24.6 86 1.7 SSW 15 19 8 10 1005.9 1005.9 0.0
03/03:30am 27.2 30.9 24.5 85 1.9 SSW 13 15 7 8 1005.8 1005.8 0.0
03/03:00am 27.2 31.7 24.6 86 1.8 S 9 13 5 7 1005.8 1005.8 0.0
03/02:30am 27.0 32.1 24.6 87 1.7 S 6 7 3 4 1006.0 1006.0 0.0
03/02:00am 27.2 31.6 24.5 85 1.9 SSW 9 13 5 7 1005.8 1005.8 0.0
03/01:30am 27.4 31.6 24.7 85 1.9 SW 11 15 6 8 1005.8 1005.8 0.0
03/01:00am 27.3 32.1 25.1 88 1.5 SW 9 13 5 7 1006.0 1006.0 0.0
03/12:30am 27.4 32.7 25.0 87 1.7 WSW 6 11 3 6 1006.5 1006.5 0.0
03/12:00am 27.6 32.7 25.0 86 1.8 SW 7 9 4 5 1006.8 1006.8 0.0
 
Date/Time
WST
Temp
°C
App
Temp
°C
Dew
Point
Rel
Hum
%
Delta-T
°C
Wind Press
QNH
hPa
Press
MSL
hPa
Rain
since 9 am
mm
Dir
 
Spd
km/h
Gust
km/h
Spd
kts
Gust
kts
02/11:30pm 27.7 32.8 24.9 85 2.0 SW 7 9 4 5 1007.1 1007.1 0.0
02/11:00pm 28.0 33.0 24.8 83 2.2 SW 7 9 4 5 1007.5 1007.5 0.0
02/10:30pm 28.3 33.6 24.9 82 2.4 SW 6 7 3 4 1007.7 1007.7 0.0
02/10:00pm 28.3 33.6 24.9 82 2.4 WSW 6 7 3 4 1007.5 1007.5 0.0
02/09:30pm 28.4 33.1 25.0 82 2.4 WSW 9 11 5 6 1007.4 1007.4 0.0
02/09:00pm 28.7 32.9 24.7 79 2.8 WSW 11 13 6 7 1006.9 1006.9 0.0
02/08:30pm 29.0 33.2 24.8 78 2.9 WSW 11 15 6 8 1006.2 1006.2 0.0
02/08:00pm 29.5 33.8 25.5 79 2.8 W 13 15 7 8 1005.7 1005.7 0.0
02/07:30pm 29.5 33.9 25.7 80 2.7 WNW 13 17 7 9 1005.2 1005.2 0.0
02/07:00pm 30.1 33.3 24.9 73 3.7 WNW 17 22 9 12 1004.8 1004.8 0.0
02/06:30pm 30.4 33.2 25.2 74 3.7 WNW 20 24 11 13 1004.6 1004.6 0.0
02/06:00pm 30.7 33.7 25.5 74 3.7 WNW 20 28 11 15 1004.0 1003.9 0.0
02/05:30pm 32.5 34.7 24.0 61 5.9 NW 19 26 10 14 1003.7 1003.6 0.0
02/05:00pm 34.1 37.2 22.2 50 8.2 WSW 9 13 5 7 1003.5 1003.4 0.0
02/04:30pm 34.3 38.4 23.3 52 7.6 SW 7 15 4 8 1003.4 1003.3 0.0
02/04:00pm 33.4 37.4 23.1 54 7.1 SSW 7 11 4 6 1003.3 1003.2 0.0

Other Formats:

Comma delimited format used in spreadsheet applications
http://www.bom.gov.au/fwo/IDW60801/IDW60801.95205.axf

JavaScript Object Notation format (JSON) in row-major order
http://www.bom.gov.au/fwo/IDW60801/IDW60801.95205.json